createdAt,value
2018-01-15T00:00:05.912Z,958.56
2018-01-15T00:01:05.892Z,958.54
2018-01-15T00:02:05.886Z,958.59
2018-01-15T00:03:05.855Z,958.51
2018-01-15T00:04:05.835Z,958.49
2018-01-15T00:05:05.818Z,958.52
2018-01-15T00:06:05.806Z,958.5
2018-01-15T00:07:05.780Z,958.54
2018-01-15T00:08:05.760Z,958.49
2018-01-15T00:09:05.741Z,958.48
2018-01-15T00:10:05.723Z,958.47
2018-01-15T00:11:05.704Z,958.41
2018-01-15T00:12:05.684Z,958.44
2018-01-15T00:13:05.667Z,958.4
2018-01-15T00:14:05.668Z,958.43
2018-01-15T00:15:05.628Z,958.38
2018-01-15T00:16:05.608Z,958.4
2018-01-15T00:17:05.591Z,958.41
2018-01-15T00:18:05.594Z,958.45
2018-01-15T00:19:05.552Z,958.4
2018-01-15T00:20:05.536Z,958.41
2018-01-15T00:21:05.514Z,958.43
2018-01-15T00:22:05.501Z,958.4
2018-01-15T00:23:05.477Z,958.31
2018-01-15T00:24:05.458Z,958.31
2018-01-15T00:25:05.439Z,958.22
2018-01-15T00:26:05.423Z,958.15
2018-01-15T00:27:05.400Z,958.12
2018-01-15T00:28:05.386Z,958.13
2018-01-15T00:29:05.381Z,958.12
2018-01-15T00:30:05.344Z,958.06
2018-01-15T00:31:05.324Z,958.09
2018-01-15T00:32:05.305Z,958.12
2018-01-15T00:33:05.288Z,958.09
2018-01-15T00:34:05.267Z,958.08
2018-01-15T00:35:05.249Z,958.08
2018-01-15T00:36:05.230Z,958.04
2018-01-15T00:37:05.212Z,958.04
2018-01-15T00:38:05.199Z,958.06
2018-01-15T00:39:05.172Z,958.01
2018-01-15T00:40:05.152Z,958.03
2018-01-15T00:41:05.134Z,957.98
2018-01-15T00:42:05.114Z,957.96
2018-01-15T00:43:05.095Z,957.96
2018-01-15T00:44:05.075Z,957.96
2018-01-15T00:45:05.055Z,957.9
2018-01-15T00:46:05.037Z,957.89
2018-01-15T00:47:05.018Z,957.93
2018-01-15T00:48:04.997Z,957.95
2018-01-15T00:49:04.980Z,957.92
2018-01-15T00:50:04.960Z,957.86
2018-01-15T00:51:04.939Z,957.93
2018-01-15T00:52:04.920Z,957.93
2018-01-15T00:53:04.900Z,957.93
2018-01-15T00:54:04.882Z,957.91
2018-01-15T00:55:04.861Z,957.92
2018-01-15T00:56:04.843Z,957.95
2018-01-15T00:57:04.823Z,957.91
2018-01-15T00:58:04.803Z,957.93
2018-01-15T00:59:04.783Z,957.95
2018-01-15T01:00:04.764Z,957.9
2018-01-15T01:01:04.756Z,957.92
2018-01-15T01:02:04.726Z,957.94
2018-01-15T01:03:04.725Z,957.94
2018-01-15T01:04:04.685Z,957.85
2018-01-15T01:05:04.667Z,957.92
2018-01-15T01:06:04.646Z,957.91
2018-01-15T01:07:04.626Z,957.92
2018-01-15T01:08:04.606Z,957.92
2018-01-15T01:09:04.587Z,957.9
2018-01-15T01:10:04.573Z,957.91
2018-01-15T01:11:04.548Z,957.83
2018-01-15T01:12:04.533Z,957.86
2018-01-15T01:13:04.522Z,957.92
2018-01-15T01:14:04.489Z,957.85
2018-01-15T01:15:04.469Z,957.87
2018-01-15T01:16:04.453Z,957.9
2018-01-15T01:17:04.430Z,957.81
2018-01-15T01:18:04.409Z,957.86
2018-01-15T01:19:04.390Z,957.82
2018-01-15T01:20:04.371Z,957.78
2018-01-15T01:21:04.350Z,957.8
2018-01-15T01:22:04.332Z,957.83
2018-01-15T01:23:04.311Z,957.84
2018-01-15T01:24:04.292Z,957.94
2018-01-15T01:25:04.271Z,957.83
2018-01-15T01:26:04.253Z,957.86
2018-01-15T01:27:04.232Z,957.83
2018-01-15T01:28:04.213Z,957.83
2018-01-15T01:29:04.194Z,957.78
2018-01-15T01:30:04.176Z,957.74
2018-01-15T01:31:04.158Z,957.74
2018-01-15T01:32:04.140Z,957.73
2018-01-15T01:33:04.131Z,957.74
2018-01-15T01:34:04.095Z,957.7
2018-01-15T01:35:04.075Z,957.72
2018-01-15T01:36:04.055Z,957.72
2018-01-15T01:37:04.035Z,957.64
2018-01-15T01:38:04.016Z,957.64
2018-01-15T01:39:03.995Z,957.61
2018-01-15T01:40:03.975Z,957.66
2018-01-15T01:41:03.976Z,957.53
2018-01-15T01:42:03.936Z,957.55
2018-01-15T01:43:03.915Z,957.51
2018-01-15T01:44:03.896Z,957.51
2018-01-15T01:45:03.876Z,957.52
2018-01-15T01:46:03.857Z,957.53
2018-01-15T01:47:03.836Z,957.55
2018-01-15T01:48:03.816Z,957.52
2018-01-15T01:49:03.797Z,957.57
2018-01-15T01:50:03.791Z,957.57
2018-01-15T01:51:03.758Z,957.56
2018-01-15T01:52:03.737Z,957.63
2018-01-15T01:53:03.742Z,957.57
2018-01-15T01:54:03.696Z,957.51
2018-01-15T01:55:03.677Z,957.52
2018-01-15T01:56:03.658Z,957.49
2018-01-15T01:57:03.638Z,957.48
2018-01-15T01:58:03.635Z,957.54
2018-01-15T01:59:03.597Z,957.43
2018-01-15T02:00:03.579Z,957.46
2018-01-15T02:01:03.558Z,957.43
2018-01-15T02:02:03.537Z,957.44
2018-01-15T02:03:03.517Z,957.43
2018-01-15T02:04:03.498Z,957.44
2018-01-15T02:05:03.481Z,957.41
2018-01-15T02:06:03.468Z,957.38
2018-01-15T02:07:03.438Z,957.34
2018-01-15T02:08:03.424Z,957.33
2018-01-15T02:09:03.398Z,957.34
2018-01-15T02:10:03.381Z,957.36
2018-01-15T02:11:03.358Z,957.29
2018-01-15T02:12:03.338Z,957.31
2018-01-15T02:13:03.318Z,957.3
2018-01-15T02:14:03.300Z,957.32
2018-01-15T02:15:03.279Z,957.31
2018-01-15T02:16:03.263Z,957.25
2018-01-15T02:17:03.238Z,957.16
2018-01-15T02:18:03.219Z,957.19
2018-01-15T02:19:03.199Z,957.2
2018-01-15T02:20:03.179Z,957.17
2018-01-15T02:21:03.158Z,957.19
2018-01-15T02:22:03.158Z,957.18
2018-01-15T02:23:03.118Z,957.18
2018-01-15T02:24:03.098Z,957.21
2018-01-15T02:25:03.080Z,957.22
2018-01-15T02:26:03.059Z,957.16
2018-01-15T02:27:03.044Z,957.18
2018-01-15T02:28:03.020Z,957.16
2018-01-15T02:29:03.000Z,957.25
2018-01-15T02:30:02.979Z,957.28
2018-01-15T02:31:02.961Z,957.22
2018-01-15T02:32:02.942Z,957.21
2018-01-15T02:33:02.920Z,957.22
2018-01-15T02:34:02.899Z,957.21
2018-01-15T02:35:02.880Z,957.19
2018-01-15T02:36:02.860Z,957.15
2018-01-15T02:37:02.839Z,957.11
2018-01-15T02:38:02.819Z,957.11
2018-01-15T02:39:02.798Z,957.13
2018-01-15T02:40:02.779Z,957.07
2018-01-15T02:41:02.760Z,957.08
2018-01-15T02:42:02.740Z,957.02
2018-01-15T02:43:02.719Z,957.03
2018-01-15T02:44:02.702Z,957.04
2018-01-15T02:45:02.679Z,957.02
2018-01-15T02:46:02.660Z,956.99
2018-01-15T02:47:02.638Z,957.02
2018-01-15T02:48:02.619Z,957.02
2018-01-15T02:49:02.598Z,956.99
2018-01-15T02:50:02.584Z,956.99
2018-01-15T02:51:02.575Z,957.06
2018-01-15T02:52:02.539Z,957.07
2018-01-15T02:53:02.518Z,956.99
2018-01-15T02:54:02.499Z,957.04
2018-01-15T02:55:02.481Z,957.04
2018-01-15T02:56:02.459Z,956.97
2018-01-15T02:57:02.439Z,956.92
2018-01-15T02:58:02.419Z,956.96
2018-01-15T02:59:02.399Z,957
2018-01-15T03:00:02.378Z,956.94
2018-01-15T03:01:02.359Z,956.93
2018-01-15T03:02:02.339Z,956.93
2018-01-15T03:03:02.320Z,956.85
2018-01-15T03:04:02.300Z,956.88
2018-01-15T03:05:02.279Z,956.86
2018-01-15T03:06:02.260Z,956.84
2018-01-15T03:07:02.238Z,956.82
2018-01-15T03:08:02.220Z,956.79
2018-01-15T03:09:02.200Z,956.84
2018-01-15T03:10:02.179Z,956.86
2018-01-15T03:11:02.159Z,956.79
2018-01-15T03:12:02.140Z,956.81
2018-01-15T03:13:02.122Z,956.74
2018-01-15T03:14:02.099Z,956.75
2018-01-15T03:15:02.078Z,956.68
2018-01-15T03:16:02.059Z,956.67
2018-01-15T03:17:02.040Z,956.64
2018-01-15T03:18:02.019Z,956.68
2018-01-15T03:19:01.998Z,956.67
2018-01-15T03:20:01.979Z,956.69
2018-01-15T03:21:01.960Z,956.63
2018-01-15T03:22:01.940Z,956.62
2018-01-15T03:23:01.931Z,956.65
2018-01-15T03:24:01.899Z,956.62
2018-01-15T03:25:01.892Z,956.63
2018-01-15T03:26:01.861Z,956.59
2018-01-15T03:27:01.839Z,956.58
2018-01-15T03:28:01.820Z,956.55
2018-01-15T03:29:01.799Z,956.52
2018-01-15T03:30:01.780Z,956.53
2018-01-15T03:31:01.760Z,956.51
2018-01-15T03:32:01.740Z,956.55
2018-01-15T03:33:01.720Z,956.51
2018-01-15T03:34:01.699Z,956.45
2018-01-15T03:35:01.678Z,956.49
2018-01-15T03:36:01.658Z,956.5
2018-01-15T03:37:01.640Z,956.52
2018-01-15T03:38:01.619Z,956.46
2018-01-15T03:39:01.599Z,956.49
2018-01-15T03:40:01.577Z,956.52
2018-01-15T03:41:01.580Z,956.47
2018-01-15T03:42:01.538Z,956.5
2018-01-15T03:43:01.519Z,956.37
2018-01-15T03:44:01.498Z,956.48
2018-01-15T03:45:01.477Z,956.47
2018-01-15T03:46:01.458Z,956.42
2018-01-15T03:47:01.439Z,956.47
2018-01-15T03:48:01.421Z,956.51
2018-01-15T03:49:01.399Z,956.46
2018-01-15T03:50:01.378Z,956.5
2018-01-15T03:51:01.358Z,956.48
2018-01-15T03:52:01.338Z,956.43
2018-01-15T03:53:01.346Z,956.42
2018-01-15T03:54:01.299Z,956.45
2018-01-15T03:55:01.278Z,956.46
2018-01-15T03:56:01.258Z,956.42
2018-01-15T03:57:01.237Z,956.44
2018-01-15T03:58:01.218Z,956.38
2018-01-15T03:59:01.198Z,956.34
2018-01-15T04:00:01.198Z,956.35
2018-01-15T04:01:01.158Z,956.28
2018-01-15T04:02:01.243Z,956.24
2018-01-15T04:03:01.118Z,956.26
2018-01-15T04:04:01.104Z,956.25
2018-01-15T04:05:01.081Z,956.21
2018-01-15T04:06:01.056Z,956.25
2018-01-15T04:07:01.037Z,956.2
2018-01-15T04:08:01.019Z,956.21
2018-01-15T04:09:00.997Z,956.24
2018-01-15T04:10:00.991Z,956.19
2018-01-15T04:11:00.957Z,956.19
2018-01-15T04:12:00.952Z,956.2
2018-01-15T04:13:00.916Z,956.2
2018-01-15T04:14:00.905Z,956.23
2018-01-15T04:15:00.879Z,956.18
2018-01-15T04:16:00.942Z,956.2
2018-01-15T04:17:00.835Z,956.16
2018-01-15T04:18:00.816Z,956.11
2018-01-15T04:19:00.797Z,956.13
2018-01-15T04:20:00.799Z,956.11
2018-01-15T04:21:00.755Z,956.07
2018-01-15T04:22:00.736Z,956.11
2018-01-15T04:23:00.724Z,956.16
2018-01-15T04:24:00.695Z,956.13
2018-01-15T04:25:00.676Z,956.13
2018-01-15T04:26:00.656Z,956.15
2018-01-15T04:27:00.637Z,956.11
2018-01-15T04:28:00.616Z,956.09
2018-01-15T04:29:00.596Z,956.02
2018-01-15T04:30:00.576Z,956.04
2018-01-15T04:31:00.556Z,956.01
2018-01-15T04:32:00.535Z,955.97
2018-01-15T04:33:00.515Z,955.97
2018-01-15T04:34:00.514Z,955.89
2018-01-15T04:35:00.475Z,955.96
2018-01-15T04:36:00.639Z,955.96
2018-01-15T04:37:00.435Z,955.87
2018-01-15T04:38:00.415Z,955.86
2018-01-15T04:39:00.396Z,955.84
2018-01-15T04:40:00.377Z,955.85
2018-01-15T04:41:00.363Z,955.82
2018-01-15T04:42:00.336Z,955.83
2018-01-15T04:43:00.316Z,955.77
2018-01-15T04:44:00.297Z,955.8
2018-01-15T04:45:00.276Z,955.7
2018-01-15T04:46:00.255Z,955.82
2018-01-15T04:47:00.235Z,955.79
2018-01-15T04:48:00.215Z,955.79
2018-01-15T04:49:00.196Z,955.74
2018-01-15T04:50:00.174Z,955.83
2018-01-15T04:51:00.155Z,955.74
2018-01-15T04:52:00.136Z,955.82
2018-01-15T04:53:00.115Z,955.77
2018-01-15T04:54:00.095Z,955.73
2018-01-15T04:55:00.075Z,955.8
2018-01-15T04:56:00.056Z,955.81
2018-01-15T04:57:00.035Z,955.8
2018-01-15T04:58:00.021Z,955.79
2018-01-15T04:58:59.996Z,955.73
2018-01-15T04:59:59.973Z,955.72
2018-01-15T05:00:59.961Z,955.73
2018-01-15T05:01:59.934Z,955.79
2018-01-15T05:02:59.930Z,955.79
2018-01-15T05:03:59.893Z,955.76
2018-01-15T05:04:59.873Z,955.74
2018-01-15T05:05:59.853Z,955.75
2018-01-15T05:06:59.853Z,955.79
2018-01-15T05:07:59.812Z,955.81
2018-01-15T05:08:59.794Z,955.72
2018-01-15T05:09:59.773Z,955.75
2018-01-15T05:10:59.752Z,955.78
2018-01-15T05:11:59.732Z,955.82
2018-01-15T05:12:59.714Z,955.81
2018-01-15T05:13:59.693Z,955.78
2018-01-15T05:14:59.675Z,955.82
2018-01-15T05:15:59.654Z,955.76
2018-01-15T05:16:59.647Z,955.81
2018-01-15T05:17:59.612Z,955.84
2018-01-15T05:18:59.592Z,955.93
2018-01-15T05:19:59.571Z,955.9
2018-01-15T05:20:59.552Z,955.87
2018-01-15T05:21:59.531Z,955.92
2018-01-15T05:22:59.511Z,955.92
2018-01-15T05:23:59.496Z,955.84
2018-01-15T05:24:59.473Z,955.88
2018-01-15T05:25:59.464Z,955.94
2018-01-15T05:26:59.430Z,955.86
2018-01-15T05:27:59.411Z,955.91
2018-01-15T05:28:59.412Z,955.89
2018-01-15T05:29:59.371Z,955.91
2018-01-15T05:30:59.351Z,955.88
2018-01-15T05:31:59.331Z,955.88
2018-01-15T05:32:59.311Z,955.87
2018-01-15T05:33:59.290Z,955.88
2018-01-15T05:34:59.270Z,955.82
2018-01-15T05:35:59.253Z,955.84
2018-01-15T05:36:59.230Z,955.77
2018-01-15T05:37:59.211Z,955.82
2018-01-15T05:38:59.190Z,955.74
2018-01-15T05:39:59.170Z,955.71
2018-01-15T05:40:59.153Z,955.72
2018-01-15T05:41:59.153Z,955.69
2018-01-15T05:42:59.111Z,955.68
2018-01-15T05:43:59.090Z,955.76
2018-01-15T05:44:59.070Z,955.8
2018-01-15T05:45:59.062Z,955.85
2018-01-15T05:46:59.031Z,955.73
2018-01-15T05:47:59.010Z,955.71
2018-01-15T05:48:58.991Z,955.74
2018-01-15T05:49:58.971Z,955.79
2018-01-15T05:50:58.950Z,955.72
2018-01-15T05:51:58.938Z,955.65
2018-01-15T05:52:58.910Z,955.64
2018-01-15T05:53:58.905Z,955.67
2018-01-15T05:54:58.870Z,955.61
2018-01-15T05:55:58.850Z,955.64
2018-01-15T05:56:58.831Z,955.7
2018-01-15T05:57:58.811Z,955.69
2018-01-15T05:58:58.791Z,955.69
2018-01-15T05:59:58.771Z,955.72
2018-01-15T06:00:58.752Z,955.7
2018-01-15T06:01:58.750Z,955.7
2018-01-15T06:02:58.712Z,955.77
2018-01-15T06:03:58.691Z,955.81
2018-01-15T06:04:58.671Z,955.86
2018-01-15T06:05:58.650Z,955.81
2018-01-15T06:06:58.632Z,955.81
2018-01-15T06:07:58.612Z,955.83
2018-01-15T06:08:58.592Z,955.82
2018-01-15T06:09:58.572Z,955.78
2018-01-15T06:10:58.552Z,955.82
2018-01-15T06:11:58.533Z,955.75
2018-01-15T06:12:58.525Z,955.79
2018-01-15T06:13:58.493Z,955.79
2018-01-15T06:14:58.474Z,955.73
2018-01-15T06:15:58.454Z,955.75
2018-01-15T06:16:58.445Z,955.76
2018-01-15T06:17:58.416Z,955.73
2018-01-15T06:18:58.394Z,955.74
2018-01-15T06:19:58.375Z,955.79
2018-01-15T06:20:58.354Z,955.75
2018-01-15T06:21:58.336Z,955.84
2018-01-15T06:22:58.317Z,955.79
2018-01-15T06:23:58.297Z,955.86
2018-01-15T06:24:58.276Z,955.86
2018-01-15T06:25:58.257Z,955.8
2018-01-15T06:26:58.237Z,955.87
2018-01-15T06:27:58.219Z,955.93
2018-01-15T06:28:58.199Z,955.91
2018-01-15T06:29:58.178Z,955.94
2018-01-15T06:30:58.159Z,955.92
2018-01-15T06:31:58.156Z,955.84
2018-01-15T06:32:58.120Z,955.72
2018-01-15T06:33:58.102Z,955.84
2018-01-15T06:34:58.081Z,955.81
2018-01-15T06:35:58.062Z,955.78
2018-01-15T06:36:58.042Z,955.74
2018-01-15T06:37:58.023Z,955.78
2018-01-15T06:38:58.003Z,955.72
2018-01-15T06:39:57.985Z,955.8
2018-01-15T06:40:57.964Z,955.92
2018-01-15T06:41:57.946Z,955.85
2018-01-15T06:42:57.926Z,955.8
2018-01-15T06:43:57.905Z,955.8
2018-01-15T06:44:57.889Z,955.82
2018-01-15T06:45:57.866Z,955.77
2018-01-15T06:46:57.847Z,955.82
2018-01-15T06:47:57.828Z,955.83
2018-01-15T06:48:57.809Z,955.85
2018-01-15T06:49:57.789Z,955.8
2018-01-15T06:50:57.771Z,955.83
2018-01-15T06:51:57.751Z,955.82
2018-01-15T06:52:57.731Z,955.81
2018-01-15T06:53:57.716Z,955.86
2018-01-15T06:54:57.693Z,955.8
2018-01-15T06:55:57.675Z,955.81
2018-01-15T06:56:57.654Z,955.77
2018-01-15T06:57:57.634Z,955.82
2018-01-15T06:58:57.614Z,955.84
2018-01-15T06:59:57.597Z,955.84
2018-01-15T07:00:57.587Z,955.81
2018-01-15T07:01:57.557Z,955.79
2018-01-15T07:02:57.540Z,955.72
2018-01-15T07:03:57.518Z,955.82
2018-01-15T07:04:57.503Z,955.77
2018-01-15T07:05:57.479Z,955.84
2018-01-15T07:06:57.461Z,955.81
2018-01-15T07:07:57.502Z,955.78
2018-01-15T07:08:57.425Z,955.79
2018-01-15T07:09:57.459Z,955.74
2018-01-15T07:10:57.384Z,955.75
2018-01-15T07:11:57.364Z,955.71
2018-01-15T07:12:57.344Z,955.59
2018-01-15T07:13:57.344Z,955.6
2018-01-15T07:14:57.305Z,955.72
2018-01-15T07:15:57.294Z,955.68
2018-01-15T07:16:57.308Z,955.64
2018-01-15T07:17:57.275Z,955.61
2018-01-15T07:18:57.243Z,955.62
2018-01-15T07:19:57.208Z,955.64
2018-01-15T07:20:57.188Z,955.71
2018-01-15T07:21:57.204Z,955.72
2018-01-15T07:22:57.149Z,955.73
2018-01-15T07:23:57.130Z,955.63
2018-01-15T07:24:57.112Z,955.68
2018-01-15T07:25:57.092Z,955.67
2018-01-15T07:26:57.071Z,955.63
2018-01-15T07:27:57.053Z,955.66
2018-01-15T07:28:57.037Z,955.74
2018-01-15T07:29:57.013Z,955.61
2018-01-15T07:30:56.994Z,955.6
2018-01-15T07:31:56.974Z,955.53
2018-01-15T07:32:56.956Z,955.57
2018-01-15T07:33:56.934Z,955.53
2018-01-15T07:34:56.917Z,955.58
2018-01-15T07:35:56.910Z,955.46
2018-01-15T07:36:56.878Z,955.61
2018-01-15T07:37:56.858Z,955.57
2018-01-15T07:38:56.838Z,955.49
2018-01-15T07:39:56.819Z,955.45
2018-01-15T07:40:56.800Z,955.57
2018-01-15T07:41:56.779Z,955.45
2018-01-15T07:42:56.762Z,955.51
2018-01-15T07:43:56.741Z,955.53
2018-01-15T07:44:56.722Z,955.51
2018-01-15T07:45:56.706Z,955.51
2018-01-15T07:46:56.682Z,955.42
2018-01-15T07:47:56.671Z,955.52
2018-01-15T07:48:56.645Z,955.56
2018-01-15T07:49:56.627Z,955.5
2018-01-15T07:50:56.608Z,955.53
2018-01-15T07:51:56.597Z,955.48
2018-01-15T07:52:56.567Z,955.52
2018-01-15T07:53:56.559Z,955.37
2018-01-15T07:54:56.531Z,955.46
2018-01-15T07:55:56.513Z,955.5
2018-01-15T07:56:56.490Z,955.39
2018-01-15T07:57:56.472Z,955.37
2018-01-15T07:58:56.452Z,955.34
2018-01-15T07:59:56.432Z,955.28
2018-01-15T08:00:56.414Z,955.29
2018-01-15T08:01:56.394Z,955.3
2018-01-15T08:02:56.374Z,955.21
2018-01-15T08:03:56.354Z,955.33
2018-01-15T08:04:56.337Z,955.3
2018-01-15T08:05:56.325Z,955.26
2018-01-15T08:06:56.300Z,955.21
2018-01-15T08:07:56.277Z,955.22
2018-01-15T08:08:56.260Z,955.22
2018-01-15T08:09:56.238Z,955.18
2018-01-15T08:10:56.219Z,955.22
2018-01-15T08:11:56.200Z,955.18
2018-01-15T08:12:56.182Z,955.11
2018-01-15T08:13:56.162Z,955.17
2018-01-15T08:14:56.142Z,955.21
2018-01-15T08:15:56.123Z,955.18
2018-01-15T08:16:56.104Z,955.12
2018-01-15T08:17:56.085Z,955.14
2018-01-15T08:18:56.066Z,955.11
2018-01-15T08:19:56.047Z,955.1
2018-01-15T08:20:56.027Z,955.08
2018-01-15T08:21:56.007Z,955
2018-01-15T08:22:55.987Z,954.98
2018-01-15T08:23:55.967Z,955.13
2018-01-15T08:24:55.948Z,955.03
2018-01-15T08:25:55.929Z,954.95
2018-01-15T08:26:55.909Z,954.94
2018-01-15T08:27:55.952Z,954.91
2018-01-15T08:28:55.871Z,954.87
2018-01-15T08:29:55.856Z,954.89
2018-01-15T08:30:55.831Z,954.86
2018-01-15T08:31:55.812Z,954.8
2018-01-15T08:32:55.842Z,954.82
2018-01-15T08:33:55.772Z,954.78
2018-01-15T08:34:55.754Z,954.81
2018-01-15T08:35:55.734Z,954.78
2018-01-15T08:36:55.714Z,954.77
2018-01-15T08:37:55.695Z,954.77
2018-01-15T08:38:55.676Z,954.58
2018-01-15T08:39:55.658Z,954.69
2018-01-15T08:40:55.636Z,954.48
2018-01-15T08:41:55.654Z,954.56
2018-01-15T08:42:55.598Z,954.57
2018-01-15T08:43:55.578Z,954.52
2018-01-15T08:44:55.559Z,954.62
2018-01-15T08:45:55.539Z,954.55
2018-01-15T08:46:55.519Z,954.49
2018-01-15T08:47:55.499Z,954.42
2018-01-15T08:48:55.481Z,954.4
2018-01-15T08:49:55.461Z,954.37
2018-01-15T08:50:55.440Z,954.35
2018-01-15T08:51:55.422Z,954.37
2018-01-15T08:52:55.402Z,954.37
2018-01-15T08:53:55.382Z,954.27
2018-01-15T08:54:55.362Z,954.31
2018-01-15T08:55:55.343Z,954.19
2018-01-15T08:56:55.346Z,954.13
2018-01-15T08:57:55.304Z,954.22
2018-01-15T08:58:55.284Z,954.18
2018-01-15T08:59:55.266Z,954.2
2018-01-15T09:00:55.261Z,954.16
2018-01-15T09:01:55.226Z,954.15
2018-01-15T09:02:55.210Z,954.11
2018-01-15T09:03:55.189Z,954.11
2018-01-15T09:04:55.169Z,954.18
2018-01-15T09:05:55.148Z,954.06
2018-01-15T09:06:55.128Z,954.25
2018-01-15T09:07:55.109Z,954.05
2018-01-15T09:08:55.090Z,954.19
2018-01-15T09:09:55.071Z,954.07
2018-01-15T09:10:55.054Z,954.16
2018-01-15T09:11:55.032Z,954.1
2018-01-15T09:12:55.016Z,954.07
2018-01-15T09:13:54.993Z,953.99
2018-01-15T09:14:54.974Z,954.03
2018-01-15T09:15:54.953Z,954.05
2018-01-15T09:16:55.051Z,954.08
2018-01-15T09:17:54.916Z,954.04
2018-01-15T09:18:54.895Z,954.02
2018-01-15T09:19:54.877Z,954.01
2018-01-15T09:20:54.858Z,953.97
2018-01-15T09:21:54.837Z,953.96
2018-01-15T09:22:54.818Z,953.98
2018-01-15T09:23:54.798Z,954.01
2018-01-15T09:24:54.781Z,953.92
2018-01-15T09:25:54.760Z,954.11
2018-01-15T09:26:54.741Z,953.91
2018-01-15T09:27:54.723Z,953.89
2018-01-15T09:28:54.702Z,953.98
2018-01-15T09:29:54.693Z,953.92
2018-01-15T09:30:54.664Z,954
2018-01-15T09:31:54.647Z,953.86
2018-01-15T09:32:54.626Z,953.92
2018-01-15T09:33:54.605Z,953.93
2018-01-15T09:34:54.587Z,953.99
2018-01-15T09:35:54.567Z,953.88
2018-01-15T09:36:54.570Z,953.83
2018-01-15T09:37:54.576Z,953.84
2018-01-15T09:38:54.510Z,953.81
2018-01-15T09:39:54.490Z,953.88
2018-01-15T09:40:54.471Z,953.88
2018-01-15T09:41:54.452Z,953.94
2018-01-15T09:42:54.433Z,953.92
2018-01-15T09:43:54.413Z,953.89
2018-01-15T09:44:54.393Z,953.94
2018-01-15T09:45:54.375Z,953.91
2018-01-15T09:46:54.365Z,953.87
2018-01-15T09:47:54.335Z,953.87
2018-01-15T09:48:54.316Z,953.91
2018-01-15T09:49:54.298Z,953.95
2018-01-15T09:50:54.278Z,953.87
2018-01-15T09:51:54.259Z,953.92
2018-01-15T09:52:54.255Z,953.84
2018-01-15T09:53:54.221Z,953.82
2018-01-15T09:54:54.202Z,953.8
2018-01-15T09:55:54.181Z,953.82
2018-01-15T09:56:54.162Z,953.73
2018-01-15T09:57:54.143Z,953.68
2018-01-15T09:58:54.124Z,953.7
2018-01-15T09:59:54.106Z,953.69
2018-01-15T10:00:54.095Z,953.66
2018-01-15T10:01:54.090Z,953.75
2018-01-15T10:02:54.047Z,953.63
2018-01-15T10:03:54.076Z,953.65
2018-01-15T10:04:54.009Z,953.7
2018-01-15T10:05:53.990Z,953.63
2018-01-15T10:06:53.970Z,953.66
2018-01-15T10:07:53.951Z,953.67
2018-01-15T10:08:53.933Z,953.64
2018-01-15T10:09:53.914Z,953.63
2018-01-15T10:10:53.895Z,953.61
2018-01-15T10:11:53.874Z,953.61
2018-01-15T10:12:53.857Z,953.55
2018-01-15T10:13:53.838Z,953.54
2018-01-15T10:14:53.816Z,953.56
2018-01-15T10:15:53.802Z,953.59
2018-01-15T10:16:53.785Z,953.57
2018-01-15T10:17:53.761Z,953.57
2018-01-15T10:18:53.740Z,953.61
2018-01-15T10:19:53.723Z,953.56
2018-01-15T10:20:53.709Z,953.41
2018-01-15T10:21:53.685Z,953.53
2018-01-15T10:22:53.670Z,953.55
2018-01-15T10:23:53.646Z,953.52
2018-01-15T10:24:53.626Z,953.47
2018-01-15T10:25:53.619Z,953.52
2018-01-15T10:26:53.588Z,953.48
2018-01-15T10:27:53.569Z,953.44
2018-01-15T10:28:53.549Z,953.46
2018-01-15T10:29:53.531Z,953.35
2018-01-15T10:30:53.512Z,953.45
2018-01-15T10:31:53.493Z,953.33
2018-01-15T10:32:53.474Z,953.27
2018-01-15T10:33:53.456Z,953.23
2018-01-15T10:34:53.436Z,953.2
2018-01-15T10:35:53.417Z,953.28
2018-01-15T10:36:53.397Z,953.42
2018-01-15T10:37:53.394Z,953.32
2018-01-15T10:38:53.360Z,953.37
2018-01-15T10:39:53.342Z,953.27
2018-01-15T10:40:53.323Z,953.31
2018-01-15T10:41:53.322Z,953.22
2018-01-15T10:42:53.285Z,953.2
2018-01-15T10:43:53.268Z,953.27
2018-01-15T10:44:53.248Z,953.23
2018-01-15T10:45:53.229Z,953.07
2018-01-15T10:46:53.213Z,953.09
2018-01-15T10:47:53.191Z,952.93
2018-01-15T10:48:53.172Z,952.97
2018-01-15T10:49:53.154Z,952.98
2018-01-15T10:50:53.140Z,952.96
2018-01-15T10:51:53.115Z,952.96
2018-01-15T10:52:53.097Z,952.9
2018-01-15T10:53:53.079Z,952.82
2018-01-15T10:54:53.059Z,952.79
2018-01-15T10:55:53.051Z,952.7
2018-01-15T10:56:53.021Z,952.66
2018-01-15T10:57:53.004Z,952.73
2018-01-15T10:58:52.986Z,952.78
2018-01-15T10:59:52.967Z,952.64
2018-01-15T11:00:52.950Z,952.59
2018-01-15T11:01:52.929Z,952.58
2018-01-15T11:02:52.924Z,952.55
2018-01-15T11:03:52.904Z,952.6
2018-01-15T11:04:52.874Z,952.5
2018-01-15T11:05:52.855Z,952.51
2018-01-15T11:06:52.853Z,952.46
2018-01-15T11:07:52.819Z,952.47
2018-01-15T11:08:52.799Z,952.51
2018-01-15T11:09:52.781Z,952.46
2018-01-15T11:10:52.762Z,952.38
2018-01-15T11:11:52.744Z,952.42
2018-01-15T11:12:52.725Z,952.31
2018-01-15T11:13:52.706Z,952.38
2018-01-15T11:14:52.688Z,952.39
2018-01-15T11:15:52.670Z,952.42
2018-01-15T11:16:52.653Z,952.46
2018-01-15T11:17:52.671Z,952.39
2018-01-15T11:18:52.615Z,952.41
2018-01-15T11:19:52.600Z,952.43
2018-01-15T11:20:52.598Z,952.41
2018-01-15T11:21:52.559Z,952.36
2018-01-15T11:22:52.541Z,952.29
2018-01-15T11:23:52.522Z,952.35
2018-01-15T11:24:52.503Z,952.31
2018-01-15T11:25:52.486Z,952.21
2018-01-15T11:26:52.469Z,952.23
2018-01-15T11:27:52.469Z,952.27
2018-01-15T11:28:52.430Z,952.18
2018-01-15T11:29:52.412Z,952.09
2018-01-15T11:30:52.401Z,952.03
2018-01-15T11:31:52.376Z,952.1
2018-01-15T11:32:52.357Z,952
2018-01-15T11:33:52.339Z,951.92
2018-01-15T11:34:52.323Z,951.96
2018-01-15T11:35:52.304Z,951.88
2018-01-15T11:36:52.286Z,951.9
2018-01-15T11:37:52.267Z,951.85
2018-01-15T11:38:52.250Z,951.91
2018-01-15T11:39:52.231Z,951.84
2018-01-15T11:40:52.213Z,951.7
2018-01-15T11:41:52.195Z,951.74
2018-01-15T11:42:52.177Z,951.71
2018-01-15T11:43:52.159Z,951.66
2018-01-15T11:44:52.141Z,951.72
2018-01-15T11:45:52.122Z,951.69
2018-01-15T11:46:52.107Z,951.76
2018-01-15T11:47:52.085Z,951.75
2018-01-15T11:48:52.068Z,951.77
2018-01-15T11:49:52.050Z,951.7
2018-01-15T11:50:52.031Z,951.7
2018-01-15T11:51:52.015Z,951.63
2018-01-15T11:52:51.995Z,951.65
2018-01-15T11:53:51.984Z,951.59
2018-01-15T11:54:51.960Z,951.55
2018-01-15T11:55:51.942Z,951.55
2018-01-15T11:56:51.924Z,951.56
2018-01-15T11:57:51.906Z,951.52
2018-01-15T11:58:51.888Z,951.52
2018-01-15T11:59:51.870Z,951.45
2018-01-15T12:00:51.881Z,951.41
2018-01-15T12:01:51.834Z,951.39
2018-01-15T12:02:51.816Z,951.31
2018-01-15T12:03:51.797Z,951.31
2018-01-15T12:04:51.779Z,951.36
2018-01-15T12:05:51.761Z,951.35
2018-01-15T12:06:51.750Z,951.35
2018-01-15T12:07:51.746Z,951.41
2018-01-15T12:08:51.708Z,951.38
2018-01-15T12:09:51.692Z,951.35
2018-01-15T12:10:51.674Z,951.37
2018-01-15T12:11:51.654Z,951.38
2018-01-15T12:12:51.637Z,951.3
2018-01-15T12:13:51.618Z,951.28
2018-01-15T12:14:51.600Z,951.21
2018-01-15T12:15:51.583Z,951.23
2018-01-15T12:16:51.566Z,951.24
2018-01-15T12:17:51.548Z,951.27
2018-01-15T12:18:51.530Z,951.25
2018-01-15T12:19:51.511Z,951.19
2018-01-15T12:20:51.493Z,951.22
2018-01-15T12:21:51.477Z,951.19
2018-01-15T12:22:51.459Z,951.15
2018-01-15T12:23:51.440Z,951.15
2018-01-15T12:24:51.426Z,951.2
2018-01-15T12:25:51.404Z,951.08
2018-01-15T12:26:51.393Z,951.18
2018-01-15T12:27:51.368Z,951.04
2018-01-15T12:28:51.350Z,951.1
2018-01-15T12:29:51.333Z,951.08